createdAt,value
2023-06-09T00:03:29.561Z,20.84
2023-06-09T00:05:58.042Z,20.80
2023-06-09T00:08:26.972Z,20.75
2023-06-09T00:10:55.040Z,20.52
2023-06-09T00:13:22.565Z,20.39
2023-06-09T00:15:50.160Z,20.82
2023-06-09T00:18:18.207Z,20.82
2023-06-09T00:20:55.400Z,20.83
2023-06-09T00:23:29.921Z,20.92
2023-06-09T00:25:59.511Z,20.98
2023-06-09T00:28:27.178Z,21.02
2023-06-09T00:30:55.726Z,21.00
2023-06-09T00:33:23.005Z,21.07
2023-06-09T00:35:53.771Z,21.06
2023-06-09T00:38:21.524Z,21.03
2023-06-09T00:40:51.464Z,20.93
2023-06-09T00:43:18.890Z,20.94
2023-06-09T00:45:46.329Z,21.00
2023-06-09T00:48:14.338Z,21.00
2023-06-09T00:50:41.969Z,20.93
2023-06-09T00:53:11.592Z,20.98
2023-06-09T00:55:41.256Z,21.01
2023-06-09T00:58:11.170Z,21.17
2023-06-09T01:00:40.273Z,21.14
2023-06-09T01:03:11.667Z,20.97
2023-06-09T01:05:40.264Z,21.12
2023-06-09T01:08:16.918Z,21.03
2023-06-09T01:10:50.782Z,21.05
2023-06-09T01:13:25.614Z,20.88
2023-06-09T01:15:57.899Z,20.87
2023-06-09T01:18:26.425Z,20.82
2023-06-09T01:20:59.296Z,20.73
2023-06-09T01:23:37.815Z,20.60
2023-06-09T01:26:08.294Z,20.51
2023-06-09T01:28:39.376Z,20.47
2023-06-09T01:31:09.421Z,20.31
2023-06-09T01:33:37.993Z,20.41
2023-06-09T01:36:07.375Z,20.48
2023-06-09T01:38:34.521Z,20.43
2023-06-09T01:41:02.093Z,20.50
2023-06-09T01:43:30.739Z,20.35
2023-06-09T01:45:58.152Z,20.27
2023-06-09T01:48:32.039Z,20.34
2023-06-09T01:51:04.361Z,20.16
2023-06-09T01:53:35.823Z,20.01
2023-06-09T01:56:08.392Z,19.92
2023-06-09T01:58:42.721Z,19.83
2023-06-09T02:01:12.169Z,19.80
2023-06-09T02:03:45.936Z,19.77
2023-06-09T02:06:17.852Z,19.68
2023-06-09T02:08:51.332Z,19.81
2023-06-09T02:11:22.747Z,19.83
2023-06-09T02:13:57.504Z,19.76
2023-06-09T02:16:26.269Z,19.62
2023-06-09T02:18:54.287Z,19.57
2023-06-09T02:21:22.021Z,19.61
2023-06-09T02:23:49.555Z,19.48
2023-06-09T02:26:16.864Z,19.54
2023-06-09T02:28:43.952Z,19.55
2023-06-09T02:31:12.905Z,19.50
2023-06-09T02:33:39.903Z,19.64
2023-06-09T02:36:07.392Z,19.67
2023-06-09T02:38:35.381Z,19.54
2023-06-09T02:41:02.702Z,19.73
2023-06-09T02:43:30.096Z,19.66
2023-06-09T02:45:57.515Z,19.62
2023-06-09T02:48:25.905Z,19.68
2023-06-09T02:50:53.114Z,19.69
2023-06-09T02:53:20.790Z,19.60
2023-06-09T02:55:48.218Z,19.60
2023-06-09T02:58:15.620Z,19.64
2023-06-09T03:00:48.302Z,19.59
2023-06-09T03:03:15.678Z,19.68
2023-06-09T03:05:45.569Z,19.70
2023-06-09T03:08:12.856Z,19.69
2023-06-09T03:10:40.748Z,19.63
2023-06-09T03:13:08.132Z,19.63
2023-06-09T03:15:35.516Z,19.61
2023-06-09T03:18:02.615Z,19.53
2023-06-09T03:20:30.168Z,19.52
2023-06-09T03:22:59.374Z,19.45
2023-06-09T03:25:26.946Z,19.52
2023-06-09T03:27:54.997Z,19.60
2023-06-09T03:30:22.432Z,19.58
2023-06-09T03:32:49.669Z,19.51
2023-06-09T03:35:17.067Z,19.27
2023-06-09T03:37:44.142Z,19.34
2023-06-09T03:40:13.959Z,19.44
2023-06-09T03:42:41.037Z,19.39
2023-06-09T03:45:09.398Z,19.36
2023-06-09T03:47:38.902Z,19.35
2023-06-09T03:50:10.148Z,19.34
2023-06-09T03:52:40.926Z,19.35
2023-06-09T03:55:08.969Z,19.34
2023-06-09T03:57:37.471Z,19.32
2023-06-09T04:00:06.533Z,19.33
2023-06-09T04:02:33.988Z,19.37
2023-06-09T04:05:03.382Z,19.37
2023-06-09T04:07:31.414Z,19.40
2023-06-09T04:09:58.969Z,19.51
2023-06-09T04:12:26.103Z,19.56
2023-06-09T04:14:54.720Z,19.52
2023-06-09T04:17:23.517Z,19.47
2023-06-09T04:19:52.394Z,19.44
2023-06-09T04:22:20.267Z,19.42
2023-06-09T04:24:47.955Z,19.57
2023-06-09T04:27:17.155Z,19.18
2023-06-09T04:29:46.976Z,19.24
2023-06-09T04:32:18.818Z,19.02
2023-06-09T04:34:47.910Z,19.52
2023-06-09T04:37:17.206Z,19.49
2023-06-09T04:39:54.603Z,19.47
2023-06-09T04:42:23.764Z,19.00
2023-06-09T04:44:52.055Z,19.48
2023-06-09T04:47:21.648Z,19.51
2023-06-09T04:50:04.065Z,19.61
2023-06-09T04:52:31.550Z,19.72
2023-06-09T04:55:00.544Z,19.84
2023-06-09T04:57:29.923Z,19.79
2023-06-09T04:59:58.465Z,19.64
2023-06-09T05:02:26.999Z,19.59
2023-06-09T05:05:03.726Z,19.57
2023-06-09T05:07:32.952Z,19.67
2023-06-09T05:10:00.492Z,19.66
2023-06-09T05:12:27.630Z,19.64
2023-06-09T05:14:55.809Z,19.63
2023-06-09T05:17:22.858Z,19.75
2023-06-09T05:19:52.197Z,19.69
2023-06-09T05:22:19.344Z,19.46
2023-06-09T05:24:49.671Z,19.62
2023-06-09T05:27:16.741Z,19.76
2023-06-09T05:29:48.948Z,19.85
2023-06-09T05:32:17.805Z,19.69
2023-06-09T05:34:46.040Z,19.85
2023-06-09T05:37:16.776Z,19.74
2023-06-09T05:39:44.121Z,19.68
2023-06-09T05:42:11.828Z,19.71
2023-06-09T05:44:39.215Z,19.55
2023-06-09T05:47:06.669Z,19.71
2023-06-09T05:49:35.686Z,19.81
2023-06-09T05:52:03.992Z,19.95
2023-06-09T05:54:33.105Z,20.09
2023-06-09T05:57:00.597Z,20.18
2023-06-09T05:59:28.429Z,20.32
2023-06-09T06:01:55.698Z,20.46
2023-06-09T06:04:23.230Z,20.35
2023-06-09T06:06:50.175Z,20.51
2023-06-09T06:09:17.512Z,20.63
2023-06-09T06:11:46.746Z,20.84
2023-06-09T06:14:16.529Z,21.09
2023-06-09T06:16:43.497Z,21.09
2023-06-09T06:19:14.033Z,20.76
2023-06-09T06:21:43.486Z,20.74
2023-06-09T06:24:13.665Z,20.71
2023-06-09T06:26:40.831Z,20.69
2023-06-09T06:29:10.249Z,20.59
2023-06-09T06:31:37.264Z,20.38
2023-06-09T06:34:07.346Z,20.30
2023-06-09T06:36:34.833Z,20.29
2023-06-09T06:39:02.279Z,20.26
2023-06-09T06:41:29.414Z,20.46
2023-06-09T06:43:56.611Z,20.67
2023-06-09T06:46:24.948Z,20.80
2023-06-09T06:48:52.136Z,20.88
2023-06-09T06:51:19.152Z,20.95
2023-06-09T06:53:50.565Z,21.16
2023-06-09T06:56:17.717Z,21.30
2023-06-09T06:58:44.904Z,21.40
2023-06-09T07:01:12.071Z,21.33
2023-06-09T07:03:41.583Z,21.65
2023-06-09T07:06:09.804Z,22.00
2023-06-09T07:08:37.139Z,22.32
2023-06-09T07:11:04.424Z,22.45
2023-06-09T07:13:31.874Z,22.39
2023-06-09T07:16:01.481Z,22.20
2023-06-09T07:18:30.362Z,21.85
2023-06-09T07:20:58.968Z,21.53
2023-06-09T07:23:26.357Z,21.41
2023-06-09T07:25:53.724Z,21.46
2023-06-09T07:28:21.299Z,21.63
2023-06-09T07:30:48.760Z,21.83
2023-06-09T07:33:17.488Z,22.12
2023-06-09T07:35:44.579Z,22.29
2023-06-09T07:38:14.614Z,22.87
2023-06-09T07:40:41.677Z,23.09
2023-06-09T07:43:09.072Z,23.37
2023-06-09T07:45:36.252Z,23.50
2023-06-09T07:48:03.759Z,23.36
2023-06-09T07:50:31.592Z,23.19
2023-06-09T07:53:05.716Z,23.15
2023-06-09T07:55:34.364Z,23.17
2023-06-09T07:58:01.735Z,23.23
2023-06-09T08:00:29.024Z,23.33
2023-06-09T08:03:01.861Z,23.30
2023-06-09T08:05:29.312Z,23.37
2023-06-09T08:07:56.734Z,23.47
2023-06-09T08:10:24.068Z,23.42
2023-06-09T08:12:53.147Z,23.50
2023-06-09T08:15:20.382Z,23.48
2023-06-09T08:17:50.043Z,23.54
2023-06-09T08:20:17.165Z,23.54
2023-06-09T08:22:44.660Z,23.49
2023-06-09T08:25:12.795Z,23.49
2023-06-09T08:27:40.141Z,23.53
2023-06-09T08:30:10.133Z,23.73
2023-06-09T08:32:37.928Z,23.87
2023-06-09T08:35:08.351Z,24.04
2023-06-09T08:37:37.810Z,24.21
2023-06-09T08:40:09.357Z,24.18
2023-06-09T08:42:38.769Z,24.32
2023-06-09T08:45:08.850Z,24.61
2023-06-09T08:47:39.098Z,24.70
2023-06-09T08:50:09.194Z,24.75
2023-06-09T08:52:37.933Z,24.98
2023-06-09T08:55:06.206Z,25.38
2023-06-09T08:57:34.313Z,25.75
2023-06-09T09:00:08.163Z,26.11
2023-06-09T09:02:37.242Z,26.29
2023-06-09T09:05:05.319Z,26.54
2023-06-09T09:07:32.488Z,26.69
2023-06-09T09:10:00.682Z,26.68
2023-06-09T09:12:47.905Z,26.56
2023-06-09T09:15:17.096Z,26.78
2023-06-09T09:17:49.160Z,26.73
2023-06-09T09:20:17.185Z,26.68
2023-06-09T09:22:50.083Z,26.41
2023-06-09T09:25:28.338Z,26.16
2023-06-09T09:28:06.379Z,26.52
2023-06-09T09:30:44.574Z,26.52
2023-06-09T09:33:15.050Z,26.73
2023-06-09T09:35:49.776Z,26.76
2023-06-09T09:38:18.918Z,26.71
2023-06-09T09:40:47.386Z,26.72
2023-06-09T09:43:15.237Z,26.51
2023-06-09T09:45:44.884Z,26.59
2023-06-09T09:48:15.499Z,26.90
2023-06-09T09:50:44.681Z,26.84
2023-06-09T09:53:13.368Z,26.57
2023-06-09T09:55:43.575Z,26.63
2023-06-09T09:58:11.476Z,26.75
2023-06-09T10:00:40.726Z,26.72
2023-06-09T10:03:10.438Z,26.10
2023-06-09T10:05:40.686Z,26.05
2023-06-09T10:08:10.747Z,25.82
2023-06-09T10:10:39.463Z,25.82
2023-06-09T10:13:10.794Z,25.41
2023-06-09T10:15:42.693Z,25.37
2023-06-09T10:18:14.661Z,25.08
2023-06-09T10:20:46.936Z,25.31
2023-06-09T10:23:15.538Z,24.76
2023-06-09T10:25:43.196Z,25.10
2023-06-09T10:28:15.944Z,25.19
2023-06-09T10:30:43.978Z,25.29
2023-06-09T10:33:15.997Z,25.20
2023-06-09T10:35:49.292Z,24.90
2023-06-09T10:38:26.413Z,24.76
2023-06-09T10:41:00.904Z,24.44
2023-06-09T10:43:59.710Z,24.23
2023-06-09T10:46:44.009Z,24.01
2023-06-09T10:49:37.531Z,23.91
2023-06-09T10:52:07.597Z,23.75
2023-06-09T10:54:36.987Z,23.47
2023-06-09T10:57:06.277Z,23.11
2023-06-09T11:00:13.159Z,22.72
2023-06-09T11:02:41.891Z,22.42
2023-06-09T11:05:12.709Z,22.20
2023-06-09T11:07:44.778Z,21.88
2023-06-09T11:10:34.353Z,21.63
2023-06-09T11:13:02.019Z,21.51
2023-06-09T11:16:02.559Z,21.02
2023-06-09T11:18:31.281Z,20.75
2023-06-09T11:21:21.336Z,20.30
2023-06-09T11:24:04.383Z,20.08
2023-06-09T11:26:33.933Z,19.84
2023-06-09T11:29:01.853Z,19.84
2023-06-09T11:31:29.518Z,19.50
2023-06-09T11:33:57.395Z,19.43
2023-06-09T11:36:28.308Z,19.36
2023-06-09T11:39:06.030Z,18.89
2023-06-09T11:41:34.595Z,18.59
2023-06-09T11:44:01.815Z,18.42
2023-06-09T11:46:29.642Z,18.34
2023-06-09T11:49:04.894Z,18.03
2023-06-09T11:52:08.019Z,18.02
2023-06-09T11:54:47.113Z,18.24
2023-06-09T11:57:16.947Z,18.35
2023-06-09T11:59:46.783Z,18.58
2023-06-09T12:02:17.244Z,18.73
2023-06-09T12:04:44.443Z,18.77
2023-06-09T12:07:13.396Z,18.94
2023-06-09T12:09:41.671Z,19.00
2023-06-09T12:12:11.846Z,19.04
2023-06-09T12:14:41.947Z,19.13
2023-06-09T12:17:10.927Z,19.16
2023-06-09T12:19:38.085Z,19.35
2023-06-09T12:22:08.165Z,19.50
2023-06-09T12:24:35.462Z,19.48
2023-06-09T12:27:22.780Z,19.56
2023-06-09T12:29:49.785Z,19.74
2023-06-09T12:32:24.364Z,19.77
2023-06-09T12:34:59.474Z,19.59
2023-06-09T12:37:31.455Z,19.44
2023-06-09T12:40:05.816Z,19.43
2023-06-09T12:42:47.819Z,19.48
2023-06-09T12:45:16.052Z,19.59
2023-06-09T12:47:48.331Z,19.70
2023-06-09T12:50:15.835Z,19.60
2023-06-09T12:52:44.388Z,19.81
2023-06-09T12:55:16.241Z,20.12
2023-06-09T12:57:45.375Z,20.24
2023-06-09T13:00:21.876Z,20.15
2023-06-09T13:02:51.719Z,20.17
2023-06-09T13:05:21.689Z,20.15
2023-06-09T13:07:49.063Z,20.19
2023-06-09T13:10:16.160Z,20.23
2023-06-09T13:12:44.787Z,20.53
2023-06-09T13:15:11.839Z,20.71
2023-06-09T13:17:39.105Z,20.79
2023-06-09T13:20:07.583Z,20.90
2023-06-09T13:22:35.128Z,21.00
2023-06-09T13:25:02.245Z,21.09
2023-06-09T13:27:29.660Z,21.22
2023-06-09T13:29:58.253Z,21.23
2023-06-09T13:32:26.281Z,21.01
2023-06-09T13:34:53.414Z,21.38
2023-06-09T13:37:20.695Z,21.30
2023-06-09T13:39:47.799Z,21.63
2023-06-09T13:42:15.700Z,21.90
2023-06-09T13:44:42.905Z,22.28
2023-06-09T13:47:12.588Z,22.50
2023-06-09T13:49:39.796Z,22.61
2023-06-09T13:52:07.757Z,22.76
2023-06-09T13:54:34.781Z,22.84
2023-06-09T13:57:02.258Z,22.81
2023-06-09T13:59:29.130Z,23.00
2023-06-09T14:01:56.532Z,22.93
2023-06-09T14:04:25.376Z,22.65
2023-06-09T14:06:52.847Z,22.54
2023-06-09T14:09:20.006Z,22.40
2023-06-09T14:11:47.605Z,22.23
2023-06-09T14:14:15.900Z,22.20
2023-06-09T14:16:43.590Z,22.06
2023-06-09T14:19:10.872Z,21.94
2023-06-09T14:21:39.482Z,21.80
2023-06-09T14:24:09.864Z,21.67
2023-06-09T14:26:37.380Z,21.84
2023-06-09T14:29:04.447Z,21.81
2023-06-09T14:31:31.924Z,21.79
2023-06-09T14:33:59.350Z,21.64
2023-06-09T14:36:26.611Z,21.85
2023-06-09T14:41:22.784Z,22.10
2023-06-09T14:43:49.866Z,22.47
2023-06-09T14:46:17.351Z,22.77
2023-06-09T14:48:46.456Z,22.65
2023-06-09T14:51:13.818Z,22.93
2023-06-09T14:53:41.206Z,23.00
2023-06-09T14:56:09.872Z,22.99
2023-06-09T14:58:36.888Z,22.98
2023-06-09T15:01:04.304Z,22.94
2023-06-09T15:03:31.953Z,22.87
2023-06-09T15:05:59.595Z,22.80
2023-06-09T15:08:26.821Z,22.86
2023-06-09T15:10:54.092Z,23.02
2023-06-09T15:13:22.584Z,23.08
2023-06-09T15:15:49.970Z,23.07
2023-06-09T15:18:17.748Z,22.92
2023-06-09T15:20:45.586Z,23.11
2023-06-09T15:23:13.767Z,23.05
2023-06-09T15:25:45.247Z,22.97
2023-06-09T15:28:13.452Z,22.83
2023-06-09T15:30:44.395Z,22.94
2023-06-09T15:33:12.640Z,22.94
2023-06-09T15:35:42.963Z,22.91
2023-06-09T15:38:11.429Z,22.95
2023-06-09T15:40:39.449Z,23.01
2023-06-09T15:43:06.825Z,22.94
2023-06-09T15:45:38.260Z,22.96
2023-06-09T15:48:07.522Z,23.14
2023-06-09T15:50:38.764Z,23.08
2023-06-09T15:53:08.201Z,22.99
2023-06-09T15:55:36.109Z,22.89
2023-06-09T15:58:05.498Z,23.09
2023-06-09T16:00:33.977Z,23.13
2023-06-09T16:03:06.544Z,23.00
2023-06-09T16:05:38.012Z,22.75
2023-06-09T16:08:07.120Z,22.69
2023-06-09T16:10:35.944Z,22.92
2023-06-09T16:13:05.434Z,22.86
2023-06-09T16:15:34.873Z,23.10
2023-06-09T16:18:06.748Z,22.83
2023-06-09T16:20:38.741Z,23.06
2023-06-09T16:23:09.063Z,23.05
2023-06-09T16:25:36.412Z,23.00
2023-06-09T16:28:04.403Z,22.92
2023-06-09T16:30:37.246Z,22.84
2023-06-09T16:33:04.616Z,22.96
2023-06-09T16:35:37.141Z,22.97
2023-06-09T16:38:05.371Z,23.03
2023-06-09T16:40:32.580Z,22.98
2023-06-09T16:43:00.134Z,22.89
2023-06-09T16:45:27.707Z,22.78
2023-06-09T16:47:56.704Z,22.56
2023-06-09T16:50:24.664Z,22.64
2023-06-09T16:52:55.797Z,22.53
2023-06-09T16:55:23.545Z,22.05
2023-06-09T16:57:50.975Z,22.33
2023-06-09T17:00:18.967Z,22.31
2023-06-09T17:02:46.488Z,22.10
2023-06-09T17:05:14.078Z,22.14
2023-06-09T17:07:41.332Z,21.99
2023-06-09T17:10:11.450Z,22.10
2023-06-09T17:12:38.936Z,22.05
2023-06-09T17:15:07.957Z,22.05
2023-06-09T17:17:35.424Z,22.03
2023-06-09T17:20:04.333Z,21.82
2023-06-09T17:22:31.016Z,21.92
2023-06-09T17:24:58.534Z,21.93
2023-06-09T17:27:26.848Z,21.84
2023-06-09T17:29:53.967Z,21.74
2023-06-09T17:32:21.130Z,21.69
2023-06-09T17:34:48.801Z,21.46
2023-06-09T17:37:16.102Z,21.62
2023-06-09T17:39:43.715Z,21.51
2023-06-09T17:42:11.923Z,21.53
2023-06-09T17:44:40.975Z,21.53
2023-06-09T17:47:08.811Z,21.51
2023-06-09T17:49:36.651Z,21.17
2023-06-09T17:52:06.002Z,21.31
2023-06-09T17:54:37.331Z,21.58
2023-06-09T17:57:07.502Z,21.22
2023-06-09T17:59:35.260Z,21.15
2023-06-09T18:02:04.332Z,20.90
2023-06-09T18:04:31.971Z,20.94
2023-06-09T18:06:59.933Z,21.22
2023-06-09T18:09:28.230Z,21.29
2023-06-09T18:11:55.460Z,21.31
2023-06-09T18:14:23.607Z,20.86
2023-06-09T18:16:51.138Z,21.20
2023-06-09T18:19:23.741Z,21.08
2023-06-09T18:21:50.897Z,20.96
2023-06-09T18:24:19.312Z,20.61
2023-06-09T18:26:46.934Z,20.52
2023-06-09T18:29:15.284Z,20.47
2023-06-09T18:31:43.462Z,20.47
2023-06-09T18:34:12.263Z,20.53
2023-06-09T18:36:43.389Z,20.63
2023-06-09T18:39:11.456Z,20.52
2023-06-09T18:41:39.036Z,20.54
2023-06-09T18:44:18.571Z,20.73
2023-06-09T18:46:46.358Z,20.76
2023-06-09T18:49:17.458Z,20.27
2023-06-09T18:51:48.514Z,20.14
2023-06-09T18:54:20.686Z,20.01
2023-06-09T18:56:49.154Z,20.56
2023-06-09T18:59:18.914Z,20.52
2023-06-09T19:01:46.129Z,20.14
2023-06-09T19:04:14.198Z,20.01
2023-06-09T19:06:42.549Z,20.48
2023-06-09T19:09:11.417Z,20.49
2023-06-09T19:11:38.558Z,20.51
2023-06-09T19:14:09.301Z,20.51
2023-06-09T19:16:38.179Z,20.04
2023-06-09T19:19:06.471Z,20.37
2023-06-09T19:21:35.188Z,20.46
2023-06-09T19:24:03.638Z,20.28
2023-06-09T19:26:32.876Z,19.82
2023-06-09T19:29:01.607Z,19.94
2023-06-09T19:31:29.123Z,20.18
2023-06-09T19:34:03.594Z,20.07
2023-06-09T19:36:31.830Z,19.55
2023-06-09T19:39:01.656Z,19.46
2023-06-09T19:41:30.112Z,19.56
2023-06-09T19:44:02.123Z,19.54
2023-06-09T19:46:30.843Z,19.56
2023-06-09T19:49:01.209Z,19.45
2023-06-09T19:51:28.993Z,19.98
2023-06-09T19:53:58.157Z,19.92
2023-06-09T19:56:29.434Z,19.44
2023-06-09T19:59:02.893Z,19.48
2023-06-09T20:01:31.837Z,19.35
2023-06-09T20:04:00.373Z,19.75
2023-06-09T20:06:27.821Z,19.40
2023-06-09T20:08:55.564Z,19.39
2023-06-09T20:11:25.028Z,19.27
2023-06-09T20:13:53.940Z,19.60
2023-06-09T20:16:25.124Z,19.47
2023-06-09T20:18:54.436Z,19.12
2023-06-09T20:21:26.258Z,19.36
2023-06-09T20:23:54.877Z,19.24
2023-06-09T20:26:22.594Z,19.11
2023-06-09T20:28:51.152Z,18.62
2023-06-09T20:31:25.611Z,19.04
2023-06-09T20:33:57.959Z,18.97
2023-06-09T20:36:38.155Z,18.78
2023-06-09T20:39:13.923Z,18.79
2023-06-09T20:41:42.382Z,18.83
2023-06-09T20:44:11.846Z,18.72
2023-06-09T20:46:47.667Z,19.01
2023-06-09T20:49:16.843Z,18.37
2023-06-09T20:51:53.253Z,18.19
2023-06-09T20:54:20.647Z,18.68
2023-06-09T20:56:48.366Z,18.32
2023-06-09T20:59:18.562Z,18.56
2023-06-09T21:01:50.162Z,18.54
2023-06-09T21:04:21.240Z,17.90
2023-06-09T21:06:50.526Z,18.30
2023-06-09T21:09:18.652Z,18.17
2023-06-09T21:11:49.067Z,17.97
2023-06-09T21:14:21.878Z,18.06
2023-06-09T21:16:52.146Z,18.49
2023-06-09T21:19:23.667Z,17.83
2023-06-09T21:21:51.461Z,18.01
2023-06-09T21:24:19.346Z,17.99
2023-06-09T21:26:47.182Z,18.42
2023-06-09T21:29:14.616Z,18.36
2023-06-09T21:31:41.725Z,18.24
2023-06-09T21:34:09.081Z,18.23
2023-06-09T21:36:37.633Z,18.17
2023-06-09T21:39:04.945Z,18.13
2023-06-09T21:41:32.031Z,17.94
2023-06-09T21:43:59.579Z,18.15
2023-06-09T21:46:26.688Z,18.20
2023-06-09T21:48:54.331Z,18.16
2023-06-09T21:51:56.731Z,18.24
2023-06-09T21:54:24.332Z,18.15
2023-06-09T21:56:51.478Z,18.27
2023-06-09T21:59:18.837Z,18.26
2023-06-09T22:01:46.044Z,18.24
2023-06-09T22:04:13.706Z,18.32
2023-06-09T22:06:41.126Z,18.22
2023-06-09T22:09:09.891Z,18.32
2023-06-09T22:11:36.975Z,18.35
2023-06-09T22:14:04.835Z,18.40
2023-06-09T22:16:31.964Z,18.35
2023-06-09T22:18:59.266Z,18.35
2023-06-09T22:21:26.851Z,18.29
2023-06-09T22:23:54.170Z,18.22
2023-06-09T22:26:22.618Z,18.17
2023-06-09T22:28:49.682Z,18.14
2023-06-09T22:31:18.122Z,18.10
2023-06-09T22:33:46.358Z,18.15
2023-06-09T22:36:13.373Z,18.19
2023-06-09T22:38:40.772Z,18.18
2023-06-09T22:41:07.864Z,18.16
2023-06-09T22:43:36.501Z,18.03
2023-06-09T22:46:03.571Z,18.07
2023-06-09T22:48:32.084Z,17.94
2023-06-09T22:51:00.204Z,18.03
2023-06-09T22:53:28.642Z,18.02
2023-06-09T22:55:56.710Z,18.05
2023-06-09T22:58:24.219Z,18.04
2023-06-09T23:00:52.616Z,18.02
2023-06-09T23:03:20.032Z,17.94
2023-06-09T23:05:56.149Z,17.86
2023-06-09T23:08:27.927Z,17.92
2023-06-09T23:10:55.067Z,17.88
2023-06-09T23:13:22.489Z,17.75
2023-06-09T23:15:49.621Z,17.78
2023-06-09T23:18:18.266Z,17.76
2023-06-09T23:20:45.657Z,17.70
2023-06-09T23:23:15.866Z,17.64
2023-06-09T23:25:43.208Z,17.55
2023-06-09T23:28:10.533Z,17.45
2023-06-09T23:30:37.421Z,17.35
2023-06-09T23:33:04.927Z,17.32
2023-06-09T23:35:35.210Z,17.29
2023-06-09T23:38:02.595Z,17.29
2023-06-09T23:40:30.264Z,17.27
2023-06-09T23:42:57.584Z,17.27
2023-06-09T23:45:24.468Z,17.27
2023-06-09T23:47:51.798Z,17.31
2023-06-09T23:50:18.933Z,17.33
2023-06-09T23:52:48.116Z,17.23
2023-06-09T23:55:14.954Z,17.33
2023-06-09T23:57:42.437Z,17.23
